This is the latest recevied weather packets stored in our database for station/object KJ7BRE-1. If no packets are shown the sender has not sent any weather packets the latest 10 day(s).
| Time | Temp. | Humidity | Pressure | Rain* | Wind** | Luminosity | Snow |
|---|---|---|---|---|---|---|---|
| 1778225626 | 12.22° C | 68% | 1010.8 hPa | 0 mm | - | - | - |
| 1778225325 | 12.22° C | 69% | 1010.5 hPa | 0 mm | - | - | - |
| 1778225024 | 12.78° C | 68% | 1010.8 hPa | 0 mm | - | - | - |
| 1778224723 | 12.78° C | 67% | 1010.5 hPa | 0 mm | - | - | - |
| 1778224421 | 12.78° C | 68% | 1010.5 hPa | 0 mm | - | - | - |
| 1778224120 | 13.33° C | 66% | 1010.5 hPa | 0 mm | - | - | - |
| 1778223819 | 13.33° C | 67% | 1010.5 hPa | 0 mm | - | - | - |
| 1778223518 | 13.89° C | 64% | 1010.5 hPa | 0 mm | - | - | - |
| 1778223217 | 13.89° C | 63% | 1010.8 hPa | 0 mm | - | - | - |
| 1778222915 | 13.89° C | 63% | 1010.8 hPa | 0 mm | - | - | - |
| 1778222614 | 13.89° C | 62% | 1010.5 hPa | 0 mm | - | - | - |
| 1778222313 | 13.89° C | 62% | 1010.5 hPa | 0 mm | - | - | - |
| 1778222012 | 13.89° C | 63% | 1010.5 hPa | 0 mm | - | - | - |
| 1778221711 | 14.44° C | 61% | 1010.5 hPa | 0 mm | - | - | - |
| 1778221409 | 14.44° C | 63% | 1010.5 hPa | 0 mm | - | - | - |
| 1778221108 | 14.44° C | 61% | 1010.5 hPa | 0 mm | - | - | - |
| 1778220807 | 14.44° C | 60% | 1010.5 hPa | 0 mm | - | - | - |
| 1778220506 | 15° C | 60% | 1010.5 hPa | 0 mm | - | - | - |
| 1778220205 | 15° C | 59% | 1010.5 hPa | 0 mm | - | - | - |
| 1778219903 | 15.56° C | 58% | 1010.5 hPa | 0 mm | - | - | - |
| 1778219602 | 15.56° C | 59% | 1010.5 hPa | 0 mm | - | - | - |
| 1778219301 | 15° C | 61% | 1010.5 hPa | 0 mm | - | - | - |
| 1778219000 | 15.56° C | 61% | 1010.2 hPa | 0 mm | - | - | - |
| 1778218699 | 15° C | 61% | 1010.5 hPa | 0 mm | - | - | - |
| 1778218397 | 15° C | 61% | 1010.5 hPa | 0 mm | - | - | - |
* Rain latest hour (hover to see other rain measurements)
** Current wind speed in m/s (hover to see current wind gust speed)